sensor_id;sensor_type;location;lat;lon;timestamp;pressure;altitude;pressure_sealevel;temperature;humidity
29247;BME280;16272;48.188;9.964;2024-01-30T00:01:41;97184.91;;;-2.28;89.87
29247;BME280;16272;48.188;9.964;2024-01-30T00:04:06;97189.81;;;-2.16;88.66
29247;BME280;16272;48.188;9.964;2024-01-30T00:06:32;97185.25;;;-2.08;87.87
29247;BME280;16272;48.188;9.964;2024-01-30T00:08:57;97185.75;;;-1.93;87.31
29247;BME280;16272;48.188;9.964;2024-01-30T00:11:22;97185.41;;;-1.81;88.13
29247;BME280;16272;48.188;9.964;2024-01-30T00:13:50;97193.78;;;-1.70;85.89
29247;BME280;16272;48.188;9.964;2024-01-30T00:16:23;97190.06;;;-1.61;84.76
29247;BME280;16272;48.188;9.964;2024-01-30T00:18:51;97201.09;;;-1.84;85.77
29247;BME280;16272;48.188;9.964;2024-01-30T00:21:17;97198.50;;;-1.84;85.97
29247;BME280;16272;48.188;9.964;2024-01-30T00:23:43;97196.81;;;-1.85;86.24
29247;BME280;16272;48.188;9.964;2024-01-30T00:26:08;97201.72;;;-1.74;84.87
29247;BME280;16272;48.188;9.964;2024-01-30T00:28:34;97199.00;;;-1.70;84.13
29247;BME280;16272;48.188;9.964;2024-01-30T00:30:59;97198.47;;;-1.82;85.35
29247;BME280;16272;48.188;9.964;2024-01-30T00:33:24;97197.13;;;-1.97;85.40
29247;BME280;16272;48.188;9.964;2024-01-30T00:35:49;97194.53;;;-1.97;85.95
29247;BME280;16272;48.188;9.964;2024-01-30T00:38:15;97209.06;;;-2.23;86.47
29247;BME280;16272;48.188;9.964;2024-01-30T00:40:41;97196.66;;;-2.48;86.96
29247;BME280;16272;48.188;9.964;2024-01-30T00:43:06;97203.06;;;-2.61;88.32
29247;BME280;16272;48.188;9.964;2024-01-30T00:45:31;97215.16;;;-2.59;87.55
29247;BME280;16272;48.188;9.964;2024-01-30T00:47:56;97201.78;;;-2.45;87.47
29247;BME280;16272;48.188;9.964;2024-01-30T00:50:22;97201.72;;;-2.42;87.28
29247;BME280;16272;48.188;9.964;2024-01-30T00:52:47;97192.78;;;-2.67;88.06
29247;BME280;16272;48.188;9.964;2024-01-30T00:55:12;97196.31;;;-2.68;88.79
29247;BME280;16272;48.188;9.964;2024-01-30T00:57:39;97197.72;;;-2.55;88.52
29247;BME280;16272;48.188;9.964;2024-01-30T01:00:05;97190.47;;;-2.42;88.27
29247;BME280;16272;48.188;9.964;2024-01-30T01:02:31;97186.28;;;-2.49;88.06
29247;BME280;16272;48.188;9.964;2024-01-30T01:04:56;97194.88;;;-2.44;88.06
29247;BME280;16272;48.188;9.964;2024-01-30T01:07:22;97194.25;;;-2.54;88.01
29247;BME280;16272;48.188;9.964;2024-01-30T01:09:47;97200.84;;;-2.41;88.12
29247;BME280;16272;48.188;9.964;2024-01-30T01:12:13;97200.78;;;-2.37;88.13
29247;BME280;16272;48.188;9.964;2024-01-30T01:14:38;97200.81;;;-2.39;88.08
29247;BME280;16272;48.188;9.964;2024-01-30T01:17:04;97211.25;;;-2.41;87.87
29247;BME280;16272;48.188;9.964;2024-01-30T01:19:29;97200.53;;;-2.64;89.50
29247;BME280;16272;48.188;9.964;2024-01-30T01:21:54;97194.56;;;-2.68;89.45
29247;BME280;16272;48.188;9.964;2024-01-30T01:24:19;97195.41;;;-2.67;89.70
29247;BME280;16272;48.188;9.964;2024-01-30T01:26:45;97197.81;;;-2.60;89.96
29247;BME280;16272;48.188;9.964;2024-01-30T01:29:10;97196.84;;;-2.54;88.85
29247;BME280;16272;48.188;9.964;2024-01-30T01:31:37;97204.84;;;-2.63;90.06
29247;BME280;16272;48.188;9.964;2024-01-30T01:34:09;97197.16;;;-2.32;88.09
29247;BME280;16272;48.188;9.964;2024-01-30T01:36:35;97192.25;;;-2.44;87.78
29247;BME280;16272;48.188;9.964;2024-01-30T01:39:00;97197.66;;;-2.52;88.73
29247;BME280;16272;48.188;9.964;2024-01-30T01:41:30;97199.81;;;-2.35;88.11
29247;BME280;16272;48.188;9.964;2024-01-30T01:43:56;97198.28;;;-2.42;89.06
29247;BME280;16272;48.188;9.964;2024-01-30T01:46:22;97193.06;;;-2.42;88.63
29247;BME280;16272;48.188;9.964;2024-01-30T01:48:47;97189.00;;;-2.52;89.25
29247;BME280;16272;48.188;9.964;2024-01-30T01:51:14;97192.13;;;-2.75;90.33
29247;BME280;16272;48.188;9.964;2024-01-30T01:53:39;97194.25;;;-2.54;89.32
29247;BME280;16272;48.188;9.964;2024-01-30T01:56:05;97191.25;;;-2.74;89.12
29247;BME280;16272;48.188;9.964;2024-01-30T01:58:31;97194.38;;;-2.60;88.94
29247;BME280;16272;48.188;9.964;2024-01-30T02:00:57;97195.28;;;-2.63;88.60
29247;BME280;16272;48.188;9.964;2024-01-30T02:03:23;97190.75;;;-2.54;88.64
29247;BME280;16272;48.188;9.964;2024-01-30T02:05:50;97195.38;;;-2.66;89.43
29247;BME280;16272;48.188;9.964;2024-01-30T02:08:16;97193.63;;;-2.65;87.86
29247;BME280;16272;48.188;9.964;2024-01-30T02:10:41;97196.31;;;-2.68;88.07
29247;BME280;16272;48.188;9.964;2024-01-30T02:13:07;97201.50;;;-2.68;88.12
29247;BME280;16272;48.188;9.964;2024-01-30T02:15:32;97198.72;;;-2.61;88.33
29247;BME280;16272;48.188;9.964;2024-01-30T02:17:57;97192.66;;;-2.61;88.10
29247;BME280;16272;48.188;9.964;2024-01-30T02:20:24;97201.44;;;-2.65;87.48
29247;BME280;16272;48.188;9.964;2024-01-30T02:22:52;97199.00;;;-2.73;87.30
29247;BME280;16272;48.188;9.964;2024-01-30T02:25:19;97203.19;;;-2.67;87.58
29247;BME280;16272;48.188;9.964;2024-01-30T02:27:45;97201.44;;;-2.65;87.22
29247;BME280;16272;48.188;9.964;2024-01-30T02:30:10;97200.16;;;-2.85;88.61
29247;BME280;16272;48.188;9.964;2024-01-30T02:32:36;97196.25;;;-2.65;89.64
29247;BME280;16272;48.188;9.964;2024-01-30T02:35:01;97202.16;;;-2.96;89.87
29247;BME280;16272;48.188;9.964;2024-01-30T02:37:26;97192.97;;;-2.73;89.02
29247;BME280;16272;48.188;9.964;2024-01-30T02:39:52;97184.84;;;-2.99;90.40
29247;BME280;16272;48.188;9.964;2024-01-30T02:42:17;97185.63;;;-2.93;90.49
29247;BME280;16272;48.188;9.964;2024-01-30T02:44:42;97186.25;;;-2.84;89.74
29247;BME280;16272;48.188;9.964;2024-01-30T02:47:08;97182.72;;;-2.81;89.39
29247;BME280;16272;48.188;9.964;2024-01-30T02:49:33;97178.31;;;-2.78;90.60
29247;BME280;16272;48.188;9.964;2024-01-30T02:51:58;97176.16;;;-2.60;90.71
29247;BME280;16272;48.188;9.964;2024-01-30T02:54:24;97175.81;;;-2.46;88.95
29247;BME280;16272;48.188;9.964;2024-01-30T02:56:49;97182.88;;;-2.51;88.10
29247;BME280;16272;48.188;9.964;2024-01-30T02:59:14;97180.19;;;-2.47;88.23
29247;BME280;16272;48.188;9.964;2024-01-30T03:01:43;97171.28;;;-2.38;88.64
29247;BME280;16272;48.188;9.964;2024-01-30T03:04:09;97169.41;;;-2.33;88.20
29247;BME280;16272;48.188;9.964;2024-01-30T03:06:34;97172.22;;;-2.41;87.95
29247;BME280;16272;48.188;9.964;2024-01-30T03:09:00;97171.31;;;-2.40;88.86
29247;BME280;16272;48.188;9.964;2024-01-30T03:11:25;97167.03;;;-2.41;88.37
29247;BME280;16272;48.188;9.964;2024-01-30T03:13:51;97172.22;;;-2.41;87.33
29247;BME280;16272;48.188;9.964;2024-01-30T03:16:17;97162.19;;;-2.56;88.65
29247;BME280;16272;48.188;9.964;2024-01-30T03:18:42;97166.78;;;-2.67;89.13
29247;BME280;16272;48.188;9.964;2024-01-30T03:21:07;97158.97;;;-2.67;89.76
29247;BME280;16272;48.188;9.964;2024-01-30T03:23:32;97154.19;;;-2.48;89.70
29247;BME280;16272;48.188;9.964;2024-01-30T03:25:58;97171.78;;;-2.58;90.26
29247;BME280;16272;48.188;9.964;2024-01-30T03:28:23;97155.69;;;-2.74;91.01
29247;BME280;16272;48.188;9.964;2024-01-30T03:30:48;97150.41;;;-2.36;90.95
29247;BME280;16272;48.188;9.964;2024-01-30T03:33:14;97161.75;;;-2.05;88.64
29247;BME280;16272;48.188;9.964;2024-01-30T03:35:39;97161.75;;;-2.05;87.68
29247;BME280;16272;48.188;9.964;2024-01-30T03:38:04;97163.53;;;-2.07;86.52
29247;BME280;16272;48.188;9.964;2024-01-30T03:40:29;97159.22;;;-2.41;87.64
29247;BME280;16272;48.188;9.964;2024-01-30T03:42:55;97154.59;;;-2.64;88.58
29247;BME280;16272;48.188;9.964;2024-01-30T03:45:20;97165.06;;;-2.32;87.59
29247;BME280;16272;48.188;9.964;2024-01-30T03:47:45;97146.72;;;-2.26;86.69
29247;BME280;16272;48.188;9.964;2024-01-30T03:50:11;97149.13;;;-2.90;88.61
29247;BME280;16272;48.188;9.964;2024-01-30T03:52:36;97163.16;;;-2.60;88.07
29247;BME280;16272;48.188;9.964;2024-01-30T03:55:01;97150.47;;;-2.38;87.00
29247;BME280;16272;48.188;9.964;2024-01-30T03:57:26;97161.44;;;-2.27;86.81
29247;BME280;16272;48.188;9.964;2024-01-30T03:59:52;97158.03;;;-2.29;86.04
29247;BME280;16272;48.188;9.964;2024-01-30T04:02:17;97158.03;;;-2.29;85.27
29247;BME280;16272;48.188;9.964;2024-01-30T04:04:43;97156.47;;;-2.34;85.73
29247;BME280;16272;48.188;9.964;2024-01-30T04:07:08;97154.59;;;-2.29;86.22
29247;BME280;16272;48.188;9.964;2024-01-30T04:09:33;97153.75;;;-2.31;86.36
29247;BME280;16272;48.188;9.964;2024-01-30T04:11:58;97155.81;;;-2.43;85.75
29247;BME280;16272;48.188;9.964;2024-01-30T04:14:24;97159.25;;;-2.42;84.36
29247;BME280;16272;48.188;9.964;2024-01-30T04:16:49;97162.69;;;-2.42;85.56
29247;BME280;16272;48.188;9.964;2024-01-30T04:19:14;97174.31;;;-2.55;84.91
29247;BME280;16272;48.188;9.964;2024-01-30T04:21:40;97173.34;;;-2.51;85.54
29247;BME280;16272;48.188;9.964;2024-01-30T04:24:05;97173.25;;;-2.48;84.73
29247;BME280;16272;48.188;9.964;2024-01-30T04:26:31;97170.81;;;-2.54;84.08
29247;BME280;16272;48.188;9.964;2024-01-30T04:28:56;97175.13;;;-2.53;85.22
29247;BME280;16272;48.188;9.964;2024-01-30T04:31:21;97184.19;;;-2.69;85.48
29247;BME280;16272;48.188;9.964;2024-01-30T04:33:47;97177.19;;;-2.67;84.26
29247;BME280;16272;48.188;9.964;2024-01-30T04:36:12;97175.31;;;-2.61;85.73
29247;BME280;16272;48.188;9.964;2024-01-30T04:38:38;97178.22;;;-2.73;85.67
29247;BME280;16272;48.188;9.964;2024-01-30T04:41:05;97184.13;;;-2.66;84.80
29247;BME280;16272;48.188;9.964;2024-01-30T04:43:30;97182.47;;;-2.69;85.81
29247;BME280;16272;48.188;9.964;2024-01-30T04:45:56;97174.44;;;-2.97;87.27
29247;BME280;16272;48.188;9.964;2024-01-30T04:48:21;97181.84;;;-2.80;86.04
29247;BME280;16272;48.188;9.964;2024-01-30T04:50:46;97178.53;;;-2.87;85.40
29247;BME280;16272;48.188;9.964;2024-01-30T04:53:12;97179.56;;;-2.94;85.75
29247;BME280;16272;48.188;9.964;2024-01-30T04:55:37;97184.81;;;-2.97;84.90
29247;BME280;16272;48.188;9.964;2024-01-30T04:58:02;97183.31;;;-3.06;85.40
29247;BME280;16272;48.188;9.964;2024-01-30T05:00:28;97187.66;;;-3.06;85.40
29247;BME280;16272;48.188;9.964;2024-01-30T05:02:55;97188.47;;;-3.04;85.10
29247;BME280;16272;48.188;9.964;2024-01-30T05:05:21;97184.03;;;-3.01;85.03
29247;BME280;16272;48.188;9.964;2024-01-30T05:07:47;97183.34;;;-3.07;85.10
29247;BME280;16272;48.188;9.964;2024-01-30T05:10:12;97181.78;;;-3.15;85.36
29247;BME280;16272;48.188;9.964;2024-01-30T05:12:39;97192.66;;;-2.99;86.31
29247;BME280;16272;48.188;9.964;2024-01-30T05:15:04;97185.06;;;-3.06;86.92
29247;BME280;16272;48.188;9.964;2024-01-30T05:17:30;97187.25;;;-2.89;87.17
29247;BME280;16272;48.188;9.964;2024-01-30T05:19:55;97180.88;;;-3.15;86.61
29247;BME280;16272;48.188;9.964;2024-01-30T05:22:20;97186.81;;;-3.08;86.39
29247;BME280;16272;48.188;9.964;2024-01-30T05:24:46;97197.94;;;-3.42;87.71
29247;BME280;16272;48.188;9.964;2024-01-30T05:27:11;97192.81;;;-3.45;87.25
29247;BME280;16272;48.188;9.964;2024-01-30T05:29:38;97192.84;;;-3.47;87.43
29247;BME280;16272;48.188;9.964;2024-01-30T05:32:04;97192.81;;;-3.45;87.17
29247;BME280;16272;48.188;9.964;2024-01-30T05:34:30;97187.81;;;-3.14;86.55
29247;BME280;16272;48.188;9.964;2024-01-30T05:36:56;97194.06;;;-3.23;86.13
29247;BME280;16272;48.188;9.964;2024-01-30T05:39:21;97193.34;;;-3.29;86.84
29247;BME280;16272;48.188;9.964;2024-01-30T05:41:46;97200.41;;;-3.36;87.89
29247;BME280;16272;48.188;9.964;2024-01-30T05:44:11;97204.47;;;-3.23;86.85
29247;BME280;16272;48.188;9.964;2024-01-30T05:46:37;97196.03;;;-3.34;88.44
29247;BME280;16272;48.188;9.964;2024-01-30T05:49:02;97201.94;;;-3.26;87.81
29247;BME280;16272;48.188;9.964;2024-01-30T05:51:28;97196.00;;;-3.33;86.93
29247;BME280;16272;48.188;9.964;2024-01-30T05:53:53;97206.56;;;-3.40;87.15
29247;BME280;16272;48.188;9.964;2024-01-30T05:56:19;97202.28;;;-3.44;87.48
29247;BME280;16272;48.188;9.964;2024-01-30T05:58:44;97203.22;;;-3.47;87.58
29247;BME280;16272;48.188;9.964;2024-01-30T06:01:09;97198.97;;;-3.51;87.68
29247;BME280;16272;48.188;9.964;2024-01-30T06:03:35;97206.78;;;-3.53;87.50
29247;BME280;16272;48.188;9.964;2024-01-30T06:06:01;97205.03;;;-3.51;87.37
29247;BME280;16272;48.188;9.964;2024-01-30T06:08:26;97199.88;;;-3.52;87.40
29247;BME280;16272;48.188;9.964;2024-01-30T06:10:51;97202.25;;;-3.43;86.87
29247;BME280;16272;48.188;9.964;2024-01-30T06:13:17;97206.50;;;-3.37;87.17
29247;BME280;16272;48.188;9.964;2024-01-30T06:15:42;97191.78;;;-3.38;86.12
29247;BME280;16272;48.188;9.964;2024-01-30T06:18:08;97196.22;;;-3.43;86.75
29247;BME280;16272;48.188;9.964;2024-01-30T06:20:33;97192.00;;;-3.47;86.67
29247;BME280;16272;48.188;9.964;2024-01-30T06:22:59;97195.56;;;-3.53;86.90
29247;BME280;16272;48.188;9.964;2024-01-30T06:25:24;97192.91;;;-3.50;86.55
29247;BME280;16272;48.188;9.964;2024-01-30T06:27:49;97198.06;;;-3.48;86.43
29247;BME280;16272;48.188;9.964;2024-01-30T06:30:14;97198.66;;;-3.34;86.55
29247;BME280;16272;48.188;9.964;2024-01-30T06:32:40;97197.72;;;-3.33;86.94
29247;BME280;16272;48.188;9.964;2024-01-30T06:35:06;97205.31;;;-3.22;86.68
29247;BME280;16272;48.188;9.964;2024-01-30T06:37:31;97208.97;;;-2.92;86.91
29247;BME280;16272;48.188;9.964;2024-01-30T06:39:57;97205.91;;;-3.09;87.64
29247;BME280;16272;48.188;9.964;2024-01-30T06:42:22;97206.75;;;-3.09;88.43
29247;BME280;16272;48.188;9.964;2024-01-30T06:44:47;97202.06;;;-2.93;87.16
29247;BME280;16272;48.188;9.964;2024-01-30T06:47:13;97204.53;;;-2.87;86.57
29247;BME280;16272;48.188;9.964;2024-01-30T06:49:38;97202.00;;;-2.90;87.00
29247;BME280;16272;48.188;9.964;2024-01-30T06:52:06;97213.16;;;-2.85;87.16
29247;BME280;16272;48.188;9.964;2024-01-30T06:54:31;97210.31;;;-2.75;86.35
29247;BME280;16272;48.188;9.964;2024-01-30T06:56:58;97218.09;;;-2.74;86.33
29247;BME280;16272;48.188;9.964;2024-01-30T06:59:23;97214.03;;;-2.86;86.23
29247;BME280;16272;48.188;9.964;2024-01-30T07:01:48;97209.75;;;-2.87;86.34
29247;BME280;16272;48.188;9.964;2024-01-30T07:04:13;97213.91;;;-2.80;86.55
29247;BME280;16272;48.188;9.964;2024-01-30T07:06:39;97211.25;;;-2.41;85.28
29247;BME280;16272;48.188;9.964;2024-01-30T07:09:04;97215.00;;;-2.16;84.93
29247;BME280;16272;48.188;9.964;2024-01-30T07:11:30;97215.75;;;-1.47;82.48
29247;BME280;16272;48.188;9.964;2024-01-30T07:13:56;97210.72;;;-0.65;80.45
29247;BME280;16272;48.188;9.964;2024-01-30T07:16:21;97204.53;;;-0.91;80.12
29247;BME280;16272;48.188;9.964;2024-01-30T07:18:47;97217.38;;;-0.83;80.44
29247;BME280;16272;48.188;9.964;2024-01-30T07:21:12;97216.13;;;-1.30;82.75
29247;BME280;16272;48.188;9.964;2024-01-30T07:23:38;97213.38;;;-1.56;83.71
29247;BME280;16272;48.188;9.964;2024-01-30T07:26:04;97213.41;;;-1.26;84.32
29247;BME280;16272;48.188;9.964;2024-01-30T07:28:30;97218.16;;;-1.09;84.38
29247;BME280;16272;48.188;9.964;2024-01-30T07:30:55;97217.06;;;-1.02;83.77
29247;BME280;16272;48.188;9.964;2024-01-30T07:33:21;97214.53;;;-0.77;83.95
29247;BME280;16272;48.188;9.964;2024-01-30T07:35:46;97224.25;;;-0.26;83.30
29247;BME280;16272;48.188;9.964;2024-01-30T07:38:11;97217.66;;;0.14;82.05
29247;BME280;16272;48.188;9.964;2024-01-30T07:40:37;97211.50;;;0.17;82.09
29247;BME280;16272;48.188;9.964;2024-01-30T07:43:02;97214.75;;;0.24;81.70
29247;BME280;16272;48.188;9.964;2024-01-30T07:45:28;97221.94;;;0.17;80.65
29247;BME280;16272;48.188;9.964;2024-01-30T07:47:57;97217.38;;;0.24;80.68
29247;BME280;16272;48.188;9.964;2024-01-30T07:50:23;97216.97;;;0.60;80.28
29247;BME280;16272;48.188;9.964;2024-01-30T07:52:48;97214.47;;;0.57;80.10
29247;BME280;16272;48.188;9.964;2024-01-30T07:55:16;97222.34;;;0.31;81.05
29247;BME280;16272;48.188;9.964;2024-01-30T07:57:41;97212.53;;;0.62;80.99
29247;BME280;16272;48.188;9.964;2024-01-30T08:00:08;97222.13;;;0.85;80.29
29247;BME280;16272;48.188;9.964;2024-01-30T08:02:34;97224.00;;;1.05;80.29
29247;BME280;16272;48.188;9.964;2024-01-30T08:04:59;97225.28;;;1.62;79.78
29247;BME280;16272;48.188;9.964;2024-01-30T08:07:24;97227.31;;;2.19;77.21
29247;BME280;16272;48.188;9.964;2024-01-30T08:09:50;97223.88;;;1.76;78.08
29247;BME280;16272;48.188;9.964;2024-01-30T08:12:15;97229.38;;;2.33;79.02
29247;BME280;16272;48.188;9.964;2024-01-30T08:14:40;97226.53;;;2.37;76.37
29247;BME280;16272;48.188;9.964;2024-01-30T08:17:06;97230.50;;;3.25;79.06
29247;BME280;16272;48.188;9.964;2024-01-30T08:19:32;97225.66;;;2.97;75.61
29247;BME280;16272;48.188;9.964;2024-01-30T08:21:57;97229.00;;;3.75;79.58
29247;BME280;16272;48.188;9.964;2024-01-30T08:24:23;97230.06;;;3.35;73.93
29247;BME280;16272;48.188;9.964;2024-01-30T08:26:48;97220.56;;;3.32;74.07
29247;BME280;16272;48.188;9.964;2024-01-30T08:29:13;97227.91;;;3.05;74.55
29247;BME280;16272;48.188;9.964;2024-01-30T08:31:39;97221.78;;;2.66;75.03
29247;BME280;16272;48.188;9.964;2024-01-30T08:34:04;97221.22;;;2.79;75.06
29247;BME280;16272;48.188;9.964;2024-01-30T08:36:29;97228.44;;;2.54;75.32
29247;BME280;16272;48.188;9.964;2024-01-30T08:38:55;97223.44;;;2.88;74.92
29247;BME280;16272;48.188;9.964;2024-01-30T08:41:20;97226.22;;;2.85;75.72
29247;BME280;16272;48.188;9.964;2024-01-30T08:43:45;97222.81;;;2.83;76.36
29247;BME280;16272;48.188;9.964;2024-01-30T08:46:11;97224.19;;;3.10;78.11
29247;BME280;16272;48.188;9.964;2024-01-30T08:48:36;97221.47;;;3.50;76.39
29247;BME280;16272;48.188;9.964;2024-01-30T08:51:02;97216.16;;;4.05;77.76
29247;BME280;16272;48.188;9.964;2024-01-30T08:53:27;97217.66;;;3.75;75.66
29247;BME280;16272;48.188;9.964;2024-01-30T08:55:52;97218.00;;;3.30;75.24
29247;BME280;16272;48.188;9.964;2024-01-30T08:58:18;97219.72;;;3.68;76.86
29247;BME280;16272;48.188;9.964;2024-01-30T09:00:44;97213.91;;;4.15;74.05
29247;BME280;16272;48.188;9.964;2024-01-30T09:03:09;97209.56;;;4.14;75.03
29247;BME280;16272;48.188;9.964;2024-01-30T09:05:34;97209.53;;;4.49;75.08
29247;BME280;16272;48.188;9.964;2024-01-30T09:08:00;97210.16;;;4.54;74.19
29247;BME280;16272;48.188;9.964;2024-01-30T09:10:25;97213.25;;;4.45;73.33
29247;BME280;16272;48.188;9.964;2024-01-30T09:12:50;97212.13;;;4.33;73.91
29247;BME280;16272;48.188;9.964;2024-01-30T09:15:16;97219.84;;;4.01;74.23
29247;BME280;16272;48.188;9.964;2024-01-30T09:17:41;97225.31;;;3.79;74.26
29247;BME280;16272;48.188;9.964;2024-01-30T09:20:07;97224.06;;;3.69;74.15
29247;BME280;16272;48.188;9.964;2024-01-30T09:22:34;97235.53;;;3.85;74.96
29247;BME280;16272;48.188;9.964;2024-01-30T09:24:59;97221.00;;;3.96;75.70
29247;BME280;16272;48.188;9.964;2024-01-30T09:27:24;97214.38;;;4.23;74.68
29247;BME280;16272;48.188;9.964;2024-01-30T09:29:50;97211.47;;;5.12;72.82
29247;BME280;16272;48.188;9.964;2024-01-30T09:32:15;97219.06;;;5.19;71.42
29247;BME280;16272;48.188;9.964;2024-01-30T09:34:41;97224.44;;;5.00;71.30
29247;BME280;16272;48.188;9.964;2024-01-30T09:37:07;97219.72;;;4.73;71.14
29247;BME280;16272;48.188;9.964;2024-01-30T09:39:32;97221.72;;;5.01;71.16
29247;BME280;16272;48.188;9.964;2024-01-30T09:42:05;97228.41;;;5.08;71.27
29247;BME280;16272;48.188;9.964;2024-01-30T09:44:34;97224.00;;;4.91;71.38
29247;BME280;16272;48.188;9.964;2024-01-30T09:47:01;97227.06;;;5.00;71.23
29247;BME280;16272;48.188;9.964;2024-01-30T09:49:31;97218.88;;;5.22;70.59
29247;BME280;16272;48.188;9.964;2024-01-30T09:51:57;97224.47;;;5.15;71.35
29247;BME280;16272;48.188;9.964;2024-01-30T09:54:23;97231.69;;;5.12;71.40
29247;BME280;16272;48.188;9.964;2024-01-30T09:56:48;97240.09;;;5.03;71.53
29247;BME280;16272;48.188;9.964;2024-01-30T09:59:13;97241.84;;;4.86;73.17
29247;BME280;16272;48.188;9.964;2024-01-30T10:01:39;97243.09;;;4.79;73.00
29247;BME280;16272;48.188;9.964;2024-01-30T10:04:05;97235.22;;;4.44;72.87
29247;BME280;16272;48.188;9.964;2024-01-30T10:06:31;97241.75;;;4.37;75.13
29247;BME280;16272;48.188;9.964;2024-01-30T10:08:56;97236.09;;;4.95;74.07
29247;BME280;16272;48.188;9.964;2024-01-30T10:11:21;97237.00;;;4.44;71.88
29247;BME280;16272;48.188;9.964;2024-01-30T10:13:47;97234.53;;;4.40;72.84
29247;BME280;16272;48.188;9.964;2024-01-30T10:16:14;97232.31;;;5.17;73.90
29247;BME280;16272;48.188;9.964;2024-01-30T10:18:41;97229.03;;;5.92;71.14
29247;BME280;16272;48.188;9.964;2024-01-30T10:21:07;97226.34;;;6.54;69.23
29247;BME280;16272;48.188;9.964;2024-01-30T10:23:33;97228.28;;;6.80;69.25
29247;BME280;16272;48.188;9.964;2024-01-30T10:25:58;97228.38;;;5.72;69.49
29247;BME280;16272;48.188;9.964;2024-01-30T10:28:27;97225.00;;;5.54;70.73
29247;BME280;16272;48.188;9.964;2024-01-30T10:30:58;97222.78;;;5.62;70.98
29247;BME280;16272;48.188;9.964;2024-01-30T10:33:28;97224.22;;;5.84;69.63
29247;BME280;16272;48.188;9.964;2024-01-30T10:36:04;97222.09;;;5.75;71.95
29247;BME280;16272;48.188;9.964;2024-01-30T10:38:31;97221.53;;;6.16;72.13
29247;BME280;16272;48.188;9.964;2024-01-30T10:40:58;97223.28;;;6.31;70.63
29247;BME280;16272;48.188;9.964;2024-01-30T10:43:35;97211.59;;;6.35;70.36
29247;BME280;16272;48.188;9.964;2024-01-30T10:46:20;97203.16;;;7.16;70.53
29247;BME280;16272;48.188;9.964;2024-01-30T10:48:52;97205.59;;;7.34;68.80
29247;BME280;16272;48.188;9.964;2024-01-30T10:51:22;97199.69;;;6.73;69.40
29247;BME280;16272;48.188;9.964;2024-01-30T10:53:49;97199.97;;;7.11;68.88
29247;BME280;16272;48.188;9.964;2024-01-30T10:56:16;97194.38;;;7.30;66.46
29247;BME280;16272;48.188;9.964;2024-01-30T10:58:41;97192.69;;;7.71;67.09
29247;BME280;16272;48.188;9.964;2024-01-30T11:01:07;97194.91;;;7.77;67.37
29247;BME280;16272;48.188;9.964;2024-01-30T11:03:33;97188.94;;;8.41;67.61
29247;BME280;16272;48.188;9.964;2024-01-30T11:06:02;97190.09;;;8.37;63.92
29247;BME280;16272;48.188;9.964;2024-01-30T11:08:27;97182.09;;;9.02;63.09
29247;BME280;16272;48.188;9.964;2024-01-30T11:10:57;97177.66;;;8.77;63.68
29247;BME280;16272;48.188;9.964;2024-01-30T11:13:29;97172.69;;;9.35;62.14
29247;BME280;16272;48.188;9.964;2024-01-30T11:15:55;97176.69;;;9.41;61.73
29247;BME280;16272;48.188;9.964;2024-01-30T11:18:24;97174.91;;;8.66;63.14
29247;BME280;16272;48.188;9.964;2024-01-30T11:20:50;97169.94;;;9.37;62.04
29247;BME280;16272;48.188;9.964;2024-01-30T11:23:15;97162.00;;;9.61;58.34
29247;BME280;16272;48.188;9.964;2024-01-30T11:25:43;97164.34;;;10.01;60.36
29247;BME280;16272;48.188;9.964;2024-01-30T11:28:15;97155.09;;;10.18;59.76
29247;BME280;16272;48.188;9.964;2024-01-30T11:30:42;97153.47;;;10.98;59.64
29247;BME280;16272;48.188;9.964;2024-01-30T11:33:09;97149.81;;;10.54;56.58
29247;BME280;16272;48.188;9.964;2024-01-30T11:35:37;97148.16;;;11.20;58.04
29247;BME280;16272;48.188;9.964;2024-01-30T11:38:04;97148.63;;;11.14;57.29
29247;BME280;16272;48.188;9.964;2024-01-30T11:40:31;97141.22;;;11.29;57.00
29247;BME280;16272;48.188;9.964;2024-01-30T11:42:58;97147.59;;;10.47;53.63
29247;BME280;16272;48.188;9.964;2024-01-30T11:45:24;97151.91;;;10.84;56.60
29247;BME280;16272;48.188;9.964;2024-01-30T11:47:49;97146.31;;;10.64;55.29
29247;BME280;16272;48.188;9.964;2024-01-30T11:50:15;97143.19;;;10.24;56.94
29247;BME280;16272;48.188;9.964;2024-01-30T11:52:41;97141.88;;;10.88;56.99
29247;BME280;16272;48.188;9.964;2024-01-30T11:55:07;97137.50;;;11.20;56.62
29247;BME280;16272;48.188;9.964;2024-01-30T11:57:33;97130.25;;;11.00;53.13
29247;BME280;16272;48.188;9.964;2024-01-30T12:00:00;97124.22;;;10.98;55.87
29247;BME280;16272;48.188;9.964;2024-01-30T12:02:26;97128.56;;;11.21;55.77
29247;BME280;16272;48.188;9.964;2024-01-30T12:04:51;97127.25;;;10.82;52.42
29247;BME280;16272;48.188;9.964;2024-01-30T12:07:16;97130.66;;;10.84;54.55
29247;BME280;16272;48.188;9.964;2024-01-30T12:09:42;97122.03;;;10.80;56.13
29247;BME280;16272;48.188;9.964;2024-01-30T12:12:07;97118.44;;;10.93;55.12
29247;BME280;16272;48.188;9.964;2024-01-30T12:14:38;97115.16;;;10.78;56.77
29247;BME280;16272;48.188;9.964;2024-01-30T12:17:04;97112.63;;;10.99;56.24
29247;BME280;16272;48.188;9.964;2024-01-30T12:19:29;97112.13;;;11.05;56.84
29247;BME280;16272;48.188;9.964;2024-01-30T12:21:58;97111.06;;;10.96;56.47
29247;BME280;16272;48.188;9.964;2024-01-30T12:24:27;97108.38;;;11.19;57.25
29247;BME280;16272;48.188;9.964;2024-01-30T12:26:57;97112.63;;;10.99;54.63
29247;BME280;16272;48.188;9.964;2024-01-30T12:29:22;97117.38;;;10.26;57.89
29247;BME280;16272;48.188;9.964;2024-01-30T12:31:47;97114.19;;;10.09;57.70
29247;BME280;16272;48.188;9.964;2024-01-30T12:34:16;97110.13;;;10.17;58.37
29247;BME280;16272;48.188;9.964;2024-01-30T12:36:43;97111.56;;;10.21;58.10
29247;BME280;16272;48.188;9.964;2024-01-30T12:39:11;97112.88;;;10.62;56.69
29247;BME280;16272;48.188;9.964;2024-01-30T12:41:37;97110.56;;;10.69;56.95
29247;BME280;16272;48.188;9.964;2024-01-30T12:44:02;97108.63;;;10.71;55.19
29247;BME280;16272;48.188;9.964;2024-01-30T12:46:28;97108.13;;;10.54;54.44
29247;BME280;16272;48.188;9.964;2024-01-30T12:48:54;97105.34;;;10.33;56.07
29247;BME280;16272;48.188;9.964;2024-01-30T12:51:19;97109.00;;;10.55;56.45
29247;BME280;16272;48.188;9.964;2024-01-30T12:53:44;97099.94;;;10.69;56.23
29247;BME280;16272;48.188;9.964;2024-01-30T12:56:11;97111.91;;;10.63;56.16